Time;durP1;ratioP1;P1;durP2;ratioP2;P2;SDS_P1;SDS_P2;PMS_P1;PMS_P2;Temp;Humidity;BMP_temperature;BMP_pressure;BME280_temperature;BME280_humidity;BME280_pressure;Samples;Min_cycle;Max_cycle;Signal;HPM_P1;HPM_P2
2023/05/17 00:01:00;;;;;;;21.67;13.37;;;;;;;11.47;100.00;100770.97;5059349;57;1144877;-76
2023/05/17 00:06:06;;;;;;;17.17;13.20;;;;;;;11.43;100.00;100769.54;5039113;57;1144999;-76
2023/05/17 00:11:12;;;;;;;20.07;12.97;;;;;;;11.42;100.00;100763.88;4950267;57;1145148;-76
2023/05/17 00:16:17;;;;;;;19.93;12.60;;;;;;;11.40;100.00;100769.29;4935889;58;1145085;-76
2023/05/17 00:21:23;;;;;;;15.80;10.97;;;;;;;11.35;100.00;100762.17;4979870;57;1145092;-76
2023/05/17 00:26:29;;;;;;;17.07;11.23;;;;;;;11.40;100.00;100772.42;5039594;57;1145204;-76
2023/05/17 00:31:35;;;;;;;21.37;14.17;;;;;;;11.42;100.00;100769.17;4963017;57;1145092;-76
2023/05/17 00:36:41;;;;;;;17.08;10.24;;;;;;;11.40;100.00;100770.61;5073878;56;1147944;-76
2023/05/17 00:41:47;;;;;;;22.02;11.35;;;;;;;11.38;100.00;100772.53;5145268;55;1145086;-76
2023/05/17 00:46:53;;;;;;;24.83;8.87;;;;;;;11.31;100.00;100773.10;5100043;56;1145130;-76
2023/05/17 00:51:59;;;;;;;13.78;8.55;;;;;;;11.21;100.00;100766.36;5125651;55;1142933;-76
2023/05/17 00:57:06;;;;;;;12.30;7.20;;;;;;;11.12;100.00;100772.36;5139638;55;1142879;-75
2023/05/17 01:02:13;;;;;;;13.62;6.80;;;;;;;10.97;100.00;100765.10;5118835;54;1143058;-76
2023/05/17 01:07:19;;;;;;;12.93;7.33;;;;;;;10.94;100.00;100767.97;5101151;54;1143160;-76
2023/05/17 01:12:47;;;;;;;15.73;7.03;;;;;;;10.87;100.00;100774.19;5097012;55;1143039;-76
2023/05/17 01:18:29;;;;;;;11.93;6.42;;;;;;;10.79;100.00;100783.67;5073367;55;1142824;-76
2023/05/17 01:23:57;;;;;;;13.60;7.60;;;;;;;10.79;100.00;100777.05;5100849;56;1143033;-76
2023/05/17 01:29:05;;;;;;;14.83;6.67;;;;;;;10.67;100.00;100778.81;5096450;56;1142974;-76
2023/05/17 01:34:11;;;;;;;12.17;6.37;;;;;;;10.56;100.00;100785.34;5121024;56;1142985;-76
2023/05/17 01:39:17;;;;;;;13.00;7.30;;;;;;;10.53;100.00;100793.53;5101423;56;1143197;-75
2023/05/17 01:44:33;;;;;;;11.55;5.78;;;;;;;10.48;100.00;100797.83;5027378;56;1143950;-76
2023/05/17 01:49:42;;;;;;;13.43;7.07;;;;;;;10.37;100.00;100783.23;5035117;56;1142813;-75
2023/05/17 01:54:57;;;;;;;13.55;5.75;;;;;;;10.37;100.00;100783.23;5001259;56;1143102;-76
2023/05/17 02:00:08;;;;;;;7.10;5.00;;;;;;;10.31;100.00;100794.23;4963272;56;1143033;-76
2023/05/17 02:05:16;;;;;;;15.30;5.47;;;;;;;10.19;100.00;100790.67;4977670;56;1140996;-76
2023/05/17 02:10:22;;;;;;;12.57;4.43;;;;;;;10.12;100.00;100799.11;5029254;56;1143042;-76
2023/05/17 02:15:27;;;;;;;6.00;3.83;;;;;;;10.08;100.00;100799.80;5081122;55;1142908;-76
2023/05/17 02:20:33;;;;;;;6.03;3.80;;;;;;;9.98;100.00;100801.88;5186035;55;1140966;-76
2023/05/17 02:25:38;;;;;;;11.27;4.23;;;;;;;9.94;100.00;100804.36;5206447;55;1138722;-76
2023/05/17 02:30:44;;;;;;;9.27;3.03;;;;;;;9.87;100.00;100807.45;5165402;55;1151639;-76
2023/05/17 02:35:51;;;;;;;8.63;2.90;;;;;;;9.78;100.00;100819.13;5099494;56;1139073;-76
2023/05/17 02:40:57;;;;;;;8.18;2.95;;;;;;;9.80;100.00;100819.86;5119477;56;1138869;-75
2023/05/17 02:46:03;;;;;;;9.47;2.67;;;;;;;9.72;100.00;100827.02;5042999;56;1138931;-76
2023/05/17 02:51:08;;;;;;;6.13;2.60;;;;;;;9.74;100.00;100837.00;5105180;55;1138921;-76
2023/05/17 02:56:15;;;;;;;8.77;2.97;;;;;;;9.72;100.00;100841.54;5094477;56;1138657;-76
2023/05/17 03:01:21;;;;;;;9.90;2.47;;;;;;;9.84;100.00;100839.84;5099256;56;1138742;-75
2023/05/17 03:06:26;;;;;;;5.93;2.10;;;;;;;9.81;100.00;100853.25;5099947;55;1138886;-76
2023/05/17 03:11:32;;;;;;;4.87;1.87;;;;;;;9.76;100.00;100847.47;5119202;55;1138940;-76
2023/05/17 03:16:39;;;;;;;3.80;2.23;;;;;;;9.68;100.00;100839.20;5059347;55;1138887;-76
2023/05/17 03:21:45;;;;;;;5.90;2.67;;;;;;;9.60;100.00;100837.11;5158176;55;1138792;-76
2023/05/17 03:26:51;;;;;;;7.72;2.25;;;;;;;9.58;100.00;100846.92;5206295;55;1139137;-76
2023/05/17 03:31:56;;;;;;;3.77;2.50;;;;;;;9.58;100.00;100868.05;5185765;55;1138882;-75
2023/05/17 03:37:02;;;;;;;5.37;2.12;;;;;;;9.56;100.00;100872.59;5186096;55;1138676;-76
2023/05/17 03:42:09;;;;;;;10.40;2.53;;;;;;;9.50;100.00;100875.16;5128903;55;1138921;-76
2023/05/17 03:47:15;;;;;;;3.22;2.22;;;;;;;9.49;100.00;100880.53;4999734;56;1140904;-76
2023/05/17 03:52:21;;;;;;;5.13;2.53;;;;;;;9.41;100.00;100888.14;5030743;56;1139011;-76
2023/05/17 03:57:27;;;;;;;4.90;2.30;;;;;;;9.33;100.00;100886.47;5033490;56;1138992;-76
2023/05/17 04:02:34;;;;;;;7.50;2.80;;;;;;;9.22;100.00;100891.14;5026104;56;1138781;-75
2023/05/17 04:07:40;;;;;;;8.57;3.10;;;;;;;9.09;100.00;100898.17;4904024;57;1138806;-75
2023/05/17 04:12:46;;;;;;;7.57;2.90;;;;;;;8.99;100.00;100901.05;4994315;57;1138762;-76
2023/05/17 04:17:53;;;;;;;5.55;2.83;;;;;;;8.99;100.00;100911.14;4934685;57;1138912;-76
2023/05/17 04:22:59;;;;;;;4.37;2.60;;;;;;;8.97;100.00;100913.49;4893300;56;1138945;-76
2023/05/17 04:28:05;;;;;;;6.43;2.17;;;;;;;8.89;100.00;100920.56;4932906;56;1138800;-76
2023/05/17 04:33:12;;;;;;;5.73;2.30;;;;;;;8.83;100.00;100913.53;4951968;56;1138793;-76
2023/05/17 04:38:17;;;;;;;3.40;2.23;;;;;;;8.81;100.00;100909.67;4964215;56;1138715;-76
2023/05/17 04:43:23;;;;;;;5.20;1.72;;;;;;;8.80;100.00;100907.51;4954808;56;1138877;-76
2023/05/17 04:48:31;;;;;;;4.83;2.00;;;;;;;8.75;100.00;100910.91;4923974;57;1138851;-75
2023/05/17 04:53:37;;;;;;;4.87;2.00;;;;;;;8.75;100.00;100910.91;4976936;56;1138986;-75
2023/05/17 04:58:45;;;;;;;5.50;1.77;;;;;;;8.70;100.00;100917.44;5095571;56;1138895;-75
2023/05/17 05:03:51;;;;;;;4.87;1.90;;;;;;;8.65;100.00;100920.35;5099990;55;1138706;-74
2023/05/17 05:08:56;;;;;;;6.33;1.53;;;;;;;8.63;100.00;100926.66;5139202;55;1138772;-74
2023/05/17 05:14:04;;;;;;;7.97;2.07;;;;;;;8.68;100.00;100924.59;5101483;56;1138775;-75
2023/05/17 05:19:10;;;;;;;5.40;2.40;;;;;;;8.76;100.00;100921.83;5067696;55;1138886;-75
2023/05/17 05:24:17;;;;;;;8.07;1.90;;;;;;;8.79;100.00;100922.95;4972571;57;1138962;-75
2023/05/17 05:29:23;;;;;;;6.70;2.92;;;;;;;8.97;100.00;100925.36;5061755;56;1139038;-75
2023/05/17 05:34:30;;;;;;;7.97;2.43;;;;;;;8.98;100.00;100933.66;5112024;55;1138770;-75
2023/05/17 05:39:36;;;;;;;11.90;2.83;;;;;;;9.08;100.00;100942.19;5085568;55;1138860;-75
2023/05/17 05:44:41;;;;;;;6.20;2.33;;;;;;;9.22;100.00;100943.92;5016854;56;1140846;-74
2023/05/17 05:49:47;;;;;;;11.10;2.80;;;;;;;9.29;100.00;100939.95;5095378;56;1138883;-74
2023/05/17 05:54:53;;;;;;;17.05;5.47;;;;;;;9.46;100.00;100942.34;5107950;55;1141039;-74
2023/05/17 05:59:59;;;;;;;11.73;3.60;;;;;;;9.53;100.00;100951.53;5093844;55;1140998;-75
2023/05/17 06:05:05;;;;;;;8.73;3.52;;;;;;;9.61;100.00;100965.55;5079887;56;1140798;-76
2023/05/17 06:10:11;;;;;;;11.80;3.27;;;;;;;9.82;100.00;100968.06;5112312;55;1138778;-76
2023/05/17 06:15:17;;;;;;;17.13;3.40;;;;;;;9.87;100.00;100965.97;5043146;55;1140766;-76
2023/05/17 06:20:23;;;;;;;11.43;3.33;;;;;;;9.96;100.00;100964.96;5091214;55;1140922;-74
2023/05/17 06:25:28;;;;;;;12.17;4.03;;;;;;;10.20;100.00;100952.29;5090483;56;1141272;-74
2023/05/17 06:30:34;;;;;;;14.33;3.40;;;;;;;10.43;100.00;100951.14;5101171;56;1143048;-73
2023/05/17 06:35:40;;;;;;;11.23;3.03;;;;;;;10.51;100.00;100970.83;5102066;55;1143086;-75
2023/05/17 06:40:45;;;;;;;8.63;2.80;;;;;;;10.56;100.00;100971.80;5121807;55;1143285;-76
2023/05/17 06:45:51;;;;;;;14.23;5.03;;;;;;;10.60;100.00;100969.80;5127866;55;1140916;-76
2023/05/17 06:50:57;;;;;;;12.03;2.98;;;;;;;10.71;100.00;100983.11;5164972;55;1142966;-76
2023/05/17 06:56:03;;;;;;;11.83;3.80;;;;;;;10.78;100.00;100975.96;5067418;55;1142844;-76
2023/05/17 07:01:09;;;;;;;17.67;3.30;;;;;;;10.93;100.00;100991.22;5087199;55;1143020;-76
2023/05/17 07:06:14;;;;;;;11.87;4.00;;;;;;;10.96;100.00;100998.10;5075023;55;1142908;-76
2023/05/17 07:11:20;;;;;;;18.33;5.30;;;;;;;11.11;100.00;101003.14;5112633;55;1143634;-76
2023/05/17 07:16:25;;;;;;;18.03;3.83;;;;;;;11.24;100.00;101009.72;5098142;56;1142980;-75
2023/05/17 07:21:31;;;;;;;21.30;5.30;;;;;;;11.25;100.00;101016.23;5087607;56;1142886;-75
2023/05/17 07:26:37;;;;;;;13.97;3.73;;;;;;;11.47;100.00;101019.94;5048776;55;1142785;-75
2023/05/17 07:31:42;;;;;;;19.87;4.03;;;;;;;11.73;100.00;101015.39;5092735;56;1143160;-75
2023/05/17 07:36:48;;;;;;;7.43;3.87;;;;;;;11.83;100.00;101015.09;5079312;55;1190641;-75
2023/05/17 07:41:54;;;;;;;17.77;4.60;;;;;;;11.82;100.00;101014.72;5060631;56;1140912;-75
2023/05/17 07:46:59;;;;;;;17.12;4.58;;;;;;;11.92;100.00;101017.88;5078813;55;1143008;-75
2023/05/17 07:52:05;;;;;;;13.18;3.17;;;;;;;11.97;100.00;101025.02;5153403;55;1142910;-75
2023/05/17 07:57:11;;;;;;;17.07;4.80;;;;;;;11.94;100.00;101027.05;5088462;55;1143061;-75
2023/05/17 08:02:17;;;;;;;14.93;4.07;;;;;;;11.98;100.00;101033.34;5095179;55;1143231;-75
2023/05/17 08:07:23;;;;;;;12.43;3.07;;;;;;;12.01;100.00;101043.34;5096730;55;1142888;-74
2023/05/17 08:12:28;;;;;;;9.90;3.43;;;;;;;12.16;100.00;101051.47;5050984;56;1143094;-75
2023/05/17 08:17:34;;;;;;;14.43;3.70;;;;;;;12.25;100.00;101051.61;5065407;56;1140931;-77
2023/05/17 08:22:40;;;;;;;11.40;3.97;;;;;;;12.41;100.00;101042.48;5086761;55;1142974;-76
2023/05/17 08:27:46;;;;;;;5.37;2.47;;;;;;;12.38;100.00;101036.08;5130917;55;1142804;-76
2023/05/17 08:32:51;;;;;;;14.13;3.27;;;;;;;12.40;100.00;101041.63;5112254;55;1140817;-75
2023/05/17 08:37:57;;;;;;;8.80;2.98;;;;;;;12.23;100.00;101046.89;5133496;56;1142971;-76
2023/05/17 08:43:03;;;;;;;6.53;2.80;;;;;;;12.18;100.00;101049.08;5126405;55;1141041;-75
2023/05/17 08:48:10;;;;;;;13.18;3.55;;;;;;;12.27;100.00;101047.04;5135749;56;1141036;-76
2023/05/17 08:53:17;;;;;;;7.00;2.80;;;;;;;12.47;100.00;101057.45;5119559;55;1142992;-76
2023/05/17 08:58:28;;;;;;;12.27;3.20;;;;;;;12.55;100.00;101053.72;5121648;55;1140992;-76
2023/05/17 09:03:36;;;;;;;6.37;2.63;;;;;;;12.68;100.00;101058.91;5091477;54;1143455;-76
2023/05/17 09:08:43;;;;;;;5.63;2.47;;;;;;;12.73;100.00;101067.37;5126013;55;1141125;-76
2023/05/17 09:13:48;;;;;;;5.53;2.77;;;;;;;12.48;100.00;101063.61;5070620;55;1140970;-76
2023/05/17 09:18:58;;;;;;;8.90;3.27;;;;;;;12.42;100.00;101062.73;5055892;56;1140948;-75
2023/05/17 09:24:04;;;;;;;6.55;2.85;;;;;;;12.49;100.00;101069.28;5127918;55;1140813;-76
2023/05/17 09:29:15;;;;;;;12.23;2.70;;;;;;;12.63;100.00;101023.95;5130882;55;1140746;-75
2023/05/17 09:34:22;;;;;;;8.90;2.65;;;;;;;12.75;100.00;101043.37;5154575;55;1143061;-76
2023/05/17 09:39:28;;;;;;;7.10;2.77;;;;;;;12.78;100.00;101051.09;5109622;55;1140998;-76
2023/05/17 09:44:52;;;;;;;15.37;2.40;;;;;;;12.77;100.00;101056.04;5077472;55;1140744;-76
2023/05/17 09:50:02;;;;;;;6.75;2.85;;;;;;;12.68;100.00;101060.23;5065820;55;1143005;-77
2023/05/17 09:55:15;;;;;;;6.58;2.65;;;;;;;12.73;100.00;101067.85;5079575;55;1141102;-77
2023/05/17 10:00:20;;;;;;;9.83;4.15;;;;;;;12.96;100.00;101065.11;5124983;56;1141155;-78
2023/05/17 10:05:27;;;;;;;9.73;3.22;;;;;;;13.03;100.00;101065.45;5091155;55;1140804;-77
2023/05/17 10:10:33;;;;;;;8.00;2.83;;;;;;;13.05;100.00;101066.17;5077024;55;1141017;-78
2023/05/17 10:15:40;;;;;;;9.97;3.33;;;;;;;13.12;100.00;101077.17;5093302;55;1140913;-77
2023/05/17 10:20:46;;;;;;;16.10;3.93;;;;;;;13.26;100.00;101078.27;5094183;55;1140879;-78
2023/05/17 10:25:54;;;;;;;6.70;2.12;;;;;;;13.28;100.00;101075.02;5087686;55;1142956;-82
2023/05/17 10:31:00;;;;;;;17.07;3.27;;;;;;;13.26;100.00;101075.14;5098298;55;1140844;-77
2023/05/17 10:36:07;;;;;;;6.35;2.85;;;;;;;13.29;100.00;101067.41;5127022;55;1142847;-76
2023/05/17 10:41:15;;;;;;;5.27;2.50;;;;;;;13.40;100.00;101070.52;5120238;55;1140772;-76
2023/05/17 10:46:23;;;;;;;7.87;2.87;;;;;;;13.57;100.00;101072.18;5074618;55;1140780;-77
2023/05/17 10:51:35;;;;;;;9.30;2.60;;;;;;;13.45;100.00;101078.47;5045637;56;1140822;-77
2023/05/17 10:56:44;;;;;;;9.03;2.67;;;;;;;13.52;100.00;101081.48;5088687;56;1140935;-77
2023/05/17 11:02:04;;;;;;;12.97;2.77;;;;;;;13.62;100.00;101075.28;5052310;55;1141027;-76
2023/05/17 11:07:23;;;;;;;7.63;2.60;;;;;;;13.69;100.00;101075.16;5041190;56;1143007;-78
2023/05/17 11:12:41;;;;;;;9.70;2.23;;;;;;;13.69;100.00;101083.14;5025509;56;1140901;-76
2023/05/17 11:17:55;;;;;;;11.93;2.43;;;;;;;13.71;100.00;101093.16;5051867;56;1140890;-75
2023/05/17 11:23:06;;;;;;;11.83;3.37;;;;;;;13.71;93.34;101095.82;5041069;56;1143088;-76
2023/05/17 11:28:22;;;;;;;7.63;1.63;;;;;;;13.78;93.91;101097.48;5039265;56;1140753;-77
2023/05/17 11:33:45;;;;;;;7.37;2.62;;;;;;;13.84;81.20;101104.12;5064290;55;1138992;-79
2023/05/17 11:39:00;;;;;;;7.47;2.30;;;;;;;13.99;85.13;101108.17;4797756;59;1138925;-78
2023/05/17 11:44:06;;;;;;;7.87;2.10;;;;;;;14.02;79.54;101100.80;4843594;58;1138973;-76
2023/05/17 11:49:12;;;;;;;12.63;2.00;;;;;;;14.03;81.62;101098.98;4820084;58;1138925;-74
2023/05/17 11:54:18;;;;;;;5.03;2.23;;;;;;;14.08;78.94;101112.23;4801497;58;1140964;-77
2023/05/17 11:59:24;;;;;;;11.10;2.27;;;;;;;14.15;74.16;101119.23;4710334;60;1138891;-76
2023/05/17 12:04:29;;;;;;;13.30;2.87;;;;;;;14.19;75.14;101111.37;4763430;60;1140975;-75
2023/05/17 12:09:36;;;;;;;7.53;2.30;;;;;;;14.40;76.67;101111.41;4771081;59;1141083;-76
2023/05/17 12:14:47;;;;;;;6.90;1.80;;;;;;;14.50;74.94;101115.48;4894090;57;1138929;-77
2023/05/17 12:19:55;;;;;;;7.63;2.40;;;;;;;14.51;70.66;101106.52;4959593;56;1138751;-77
2023/05/17 12:25:01;;;;;;;16.35;2.87;;;;;;;14.51;70.24;101112.70;4889466;58;1138855;-75
2023/05/17 12:30:16;;;;;;;10.08;2.62;;;;;;;14.56;74.84;101117.61;4930820;57;1140904;-77
2023/05/17 12:35:22;;;;;;;15.13;2.57;;;;;;;14.73;74.75;101111.20;4936245;57;1140816;-78
2023/05/17 12:40:28;;;;;;;8.78;2.70;;;;;;;14.78;69.93;101128.13;4941056;57;1141061;-80
2023/05/17 12:45:35;;;;;;;6.53;2.70;;;;;;;14.84;69.01;101128.07;4975212;57;1138898;-76
2023/05/17 12:50:45;;;;;;;11.17;2.60;;;;;;;14.87;68.57;101132.66;4842485;57;1139135;-75
2023/05/17 12:55:50;;;;;;;6.87;1.53;;;;;;;14.87;66.68;101130.48;4956255;57;1140909;-77
2023/05/17 13:01:02;;;;;;;9.93;2.43;;;;;;;14.86;67.47;101128.79;4988821;56;1148248;-74
2023/05/17 13:06:09;;;;;;;4.40;2.37;;;;;;;14.85;66.69;101120.44;5011112;56;1138820;-75
2023/05/17 13:11:15;;;;;;;7.27;1.70;;;;;;;14.78;66.09;101118.81;4951200;57;1138902;-74
2023/05/17 13:16:33;;;;;;;5.40;1.60;;;;;;;14.76;64.60;101118.09;4961629;57;1138812;-76
2023/05/17 13:21:38;;;;;;;11.17;1.93;;;;;;;14.76;65.60;101126.92;4988647;56;1138790;-75
2023/05/17 13:26:44;;;;;;;5.07;1.93;;;;;;;14.69;67.32;101112.92;5012888;55;1140891;-75
2023/05/17 13:31:50;;;;;;;7.87;1.97;;;;;;;14.78;67.61;101124.14;5013374;57;1138739;-76
2023/05/17 13:36:56;;;;;;;8.77;2.10;;;;;;;14.86;68.39;101123.47;5117324;56;1138736;-74
2023/05/17 13:42:02;;;;;;;4.95;1.50;;;;;;;14.89;67.47;101119.21;5093049;56;1138873;-75
2023/05/17 13:47:08;;;;;;;6.40;2.27;;;;;;;14.80;65.83;101116.86;4981958;56;1138772;-77
2023/05/17 13:52:14;;;;;;;8.33;2.30;;;;;;;14.82;69.13;101130.05;4994103;56;1138994;-75
2023/05/17 13:57:20;;;;;;;10.08;2.70;;;;;;;14.83;68.54;101126.38;5080929;56;1138777;-75
2023/05/17 14:02:25;;;;;;;12.23;2.47;;;;;;;14.86;68.54;101138.95;4998274;56;1140948;-75
2023/05/17 14:07:31;;;;;;;11.97;2.40;;;;;;;14.88;67.89;101137.01;5032428;57;1140858;-77
2023/05/17 14:12:37;;;;;;;11.10;2.50;;;;;;;14.92;68.39;101145.59;4932094;57;1140942;-76
2023/05/17 14:17:42;;;;;;;5.27;2.13;;;;;;;15.02;69.25;101154.47;5013335;57;1140878;-77
2023/05/17 14:22:48;;;;;;;15.10;3.10;;;;;;;14.96;64.87;101158.52;5031336;57;1138788;-75
2023/05/17 14:27:54;;;;;;;16.57;3.83;;;;;;;14.84;65.16;101162.70;5047994;56;1140799;-77
2023/05/17 14:33:00;;;;;;;11.67;2.50;;;;;;;14.85;64.91;101172.37;4947316;57;1140939;-76
2023/05/17 14:38:05;;;;;;;7.15;2.25;;;;;;;14.82;64.51;101187.30;5041296;56;1140815;-76
2023/05/17 14:43:11;;;;;;;8.63;2.67;;;;;;;14.92;66.97;101190.38;5012302;57;1138862;-76
2023/05/17 14:48:16;;;;;;;7.83;2.50;;;;;;;14.93;66.89;101196.55;5012624;57;1138725;-76
2023/05/17 14:53:27;;;;;;;12.40;2.63;;;;;;;14.94;67.14;101200.91;5003160;56;1138893;-76
2023/05/17 14:58:29;;;;;;;15.10;2.60;;;;;;;15.01;66.57;101210.89;4969849;56;1140914;-73
2023/05/17 15:03:35;;;;;;;9.00;2.50;;;;;;;15.06;67.84;101206.52;4962861;57;1140969;-74
2023/05/17 15:08:41;;;;;;;10.20;2.30;;;;;;;15.06;66.05;101216.69;5025173;57;1138904;-76
2023/05/17 15:13:47;;;;;;;9.37;2.40;;;;;;;14.87;61.40;101232.53;5005374;57;1140828;-76
2023/05/17 15:18:53;;;;;;;14.90;3.10;;;;;;;14.80;65.09;101239.84;5012996;57;1138792;-76
2023/05/17 15:23:58;;;;;;;13.57;2.60;;;;;;;14.84;66.26;101243.44;5076973;56;1140999;-74
2023/05/17 15:29:04;;;;;;;5.50;1.40;;;;;;;14.88;65.58;101244.88;5116719;56;1141239;-74
2023/05/17 15:34:10;;;;;;;17.56;2.66;;;;;;;14.89;61.86;101255.89;5097292;56;1138843;-75
2023/05/17 15:39:16;;;;;;;6.80;2.10;;;;;;;14.86;65.20;101253.97;5096872;56;1140828;-79
2023/05/17 15:44:22;;;;;;;11.50;2.90;;;;;;;14.89;65.51;101263.03;5061238;56;1138903;-77
2023/05/17 15:49:28;;;;;;;21.50;7.93;;;;;;;14.74;63.54;101264.67;4987446;57;1141033;-74
2023/05/17 15:54:33;;;;;;;15.40;4.55;;;;;;;14.81;65.33;101264.17;4982329;57;1140797;-76
2023/05/17 15:59:39;;;;;;;15.80;3.43;;;;;;;14.89;65.86;101276.35;4985739;57;1140849;-76
2023/05/17 16:04:45;;;;;;;12.45;3.25;;;;;;;14.92;67.74;101282.77;4989009;57;1140997;-75
2023/05/17 16:09:50;;;;;;;8.00;3.67;;;;;;;15.00;67.30;101282.95;4949792;57;1140872;-74
2023/05/17 16:14:57;;;;;;;7.57;2.20;;;;;;;15.04;67.86;101285.72;4960852;57;1138711;-73
2023/05/17 16:20:02;;;;;;;15.83;2.80;;;;;;;15.09;67.08;101295.03;5061196;56;1138692;-75
2023/05/17 16:25:08;;;;;;;8.25;2.20;;;;;;;15.04;66.50;101299.04;5039998;56;1141060;-77
2023/05/17 16:30:15;;;;;;;15.23;3.67;;;;;;;14.98;66.79;101302.20;5041843;56;1138866;-78
2023/05/17 16:35:21;;;;;;;8.73;2.50;;;;;;;14.88;66.81;101311.95;5041961;56;1140855;-77
2023/05/17 16:40:27;;;;;;;14.00;3.07;;;;;;;14.69;65.92;101327.26;5009777;57;1138945;-77
2023/05/17 16:45:33;;;;;;;12.03;3.20;;;;;;;14.53;66.19;101330.81;5001875;57;1140908;-74
2023/05/17 16:50:39;;;;;;;20.97;5.47;;;;;;;14.42;65.84;101331.69;4970266;56;1140756;-75
2023/05/17 16:55:45;;;;;;;17.77;8.40;;;;;;;14.27;66.58;101335.55;5027481;56;1140942;-73
2023/05/17 17:00:50;;;;;;;12.93;6.77;;;;;;;14.26;67.88;101341.36;4927726;58;1140756;-73
2023/05/17 17:05:56;;;;;;;13.93;7.00;;;;;;;14.31;68.50;101341.84;4931723;58;1140914;-75
2023/05/17 17:11:01;;;;;;;17.83;4.93;;;;;;;14.38;68.79;101343.51;4961245;57;1140796;-76
2023/05/17 17:16:07;;;;;;;18.25;5.42;;;;;;;14.39;69.37;101355.36;4959850;57;1140962;-76
2023/05/17 17:21:13;;;;;;;18.32;5.22;;;;;;;14.42;69.43;101358.30;5004689;57;1140966;-75
2023/05/17 17:26:19;;;;;;;10.47;3.53;;;;;;;14.46;69.94;101360.23;4928382;58;1141126;-76
2023/05/17 17:31:25;;;;;;;20.67;7.50;;;;;;;14.41;69.01;101361.93;5033165;57;1141068;-76
2023/05/17 17:36:31;;;;;;;24.10;8.13;;;;;;;14.35;69.78;101363.73;4959619;57;1140718;-75
2023/05/17 17:41:37;;;;;;;12.23;4.37;;;;;;;14.26;70.36;101365.30;5013819;56;1141087;-75
2023/05/17 17:46:43;;;;;;;22.30;3.57;;;;;;;14.20;70.56;101371.61;5033017;57;1141043;-75
2023/05/17 17:51:48;;;;;;;13.93;4.50;;;;;;;14.17;71.17;101385.15;4939777;57;1140968;-75
2023/05/17 17:56:54;;;;;;;11.90;4.50;;;;;;;14.11;71.40;101387.80;4986584;56;1141080;-75
2023/05/17 18:02:01;;;;;;;17.32;3.27;;;;;;;14.03;71.55;101394.22;5080526;56;1140855;-76
2023/05/17 18:07:07;;;;;;;15.13;3.93;;;;;;;13.96;72.04;101396.97;5095892;56;1140867;-74
2023/05/17 18:12:12;;;;;;;22.80;5.53;;;;;;;13.88;71.79;101397.59;5003088;57;1141050;-75
2023/05/17 18:17:19;;;;;;;31.82;12.05;;;;;;;13.72;72.19;101408.55;5020687;56;1141275;-76
2023/05/17 18:22:24;;;;;;;21.57;7.03;;;;;;;13.65;73.29;101405.98;4965085;57;1143016;-75
2023/05/17 18:27:30;;;;;;;16.47;5.13;;;;;;;13.64;73.61;101406.10;5029425;56;1141021;-73
2023/05/17 18:32:35;;;;;;;13.35;4.17;;;;;;;13.54;73.44;101405.97;5019389;56;1141008;-75
2023/05/17 18:37:41;;;;;;;9.90;3.33;;;;;;;13.52;73.46;101417.19;5080286;56;1140951;-73
2023/05/17 18:42:47;;;;;;;12.27;3.73;;;;;;;13.45;73.15;101418.59;5011089;57;1138857;-73
2023/05/17 18:47:52;;;;;;;10.80;3.77;;;;;;;13.36;72.82;101428.12;5061136;56;1140845;-74
2023/05/17 18:53:04;;;;;;;13.67;3.57;;;;;;;13.21;72.63;101430.59;5114210;56;1140878;-73
2023/05/17 18:58:05;;;;;;;13.40;3.17;;;;;;;13.12;72.55;101445.02;5009510;57;1141061;-74
2023/05/17 19:03:11;;;;;;;13.47;4.13;;;;;;;13.06;72.57;101453.41;5094898;56;1140986;-74
2023/05/17 19:08:17;;;;;;;13.25;4.78;;;;;;;13.01;72.76;101455.92;4990258;56;1140886;-74
2023/05/17 19:13:22;;;;;;;11.70;3.83;;;;;;;12.99;72.76;101464.95;4925741;58;1140903;-74
2023/05/17 19:18:28;;;;;;;15.10;4.43;;;;;;;12.93;73.26;101475.55;4929939;58;1141014;-74
2023/05/17 19:23:34;;;;;;;19.03;6.20;;;;;;;12.82;73.61;101485.26;4941655;57;1141090;-74
2023/05/17 19:28:41;;;;;;;15.18;4.30;;;;;;;12.68;73.43;101495.03;5012972;57;1141060;-75
2023/05/17 19:33:47;;;;;;;16.90;6.03;;;;;;;12.59;73.91;101508.11;4963345;57;1141083;-73
2023/05/17 19:38:53;;;;;;;7.37;3.57;;;;;;;12.49;73.82;101513.22;4967313;57;1141250;-75
2023/05/17 19:43:58;;;;;;;13.40;4.50;;;;;;;12.43;74.68;101523.40;5008971;57;1138683;-74
2023/05/17 19:49:04;;;;;;;10.37;3.90;;;;;;;12.38;74.86;101523.70;4939360;56;1141147;-73
2023/05/17 19:54:10;;;;;;;11.53;4.20;;;;;;;12.33;75.18;101533.33;5021992;57;1141050;-75
2023/05/17 19:59:15;;;;;;;6.62;3.27;;;;;;;12.25;74.88;101540.09;5013289;57;1140834;-74
2023/05/17 20:04:21;;;;;;;13.53;3.33;;;;;;;12.08;74.81;101543.05;4991899;57;1138727;-75
2023/05/17 20:09:29;;;;;;;10.70;5.57;;;;;;;11.95;75.00;101554.48;4999184;57;1141072;-74
2023/05/17 20:14:36;;;;;;;21.23;8.40;;;;;;;11.92;75.06;101564.43;5029418;57;1140841;-76
2023/05/17 20:19:42;;;;;;;14.60;6.30;;;;;;;11.87;75.13;101582.46;4995697;56;1140849;-75
2023/05/17 20:24:47;;;;;;;17.57;6.57;;;;;;;11.83;75.52;101593.73;5090008;56;1140996;-75
2023/05/17 20:29:56;;;;;;;14.33;5.00;;;;;;;11.85;75.71;101611.72;5096513;56;1141090;-75
2023/05/17 20:35:01;;;;;;;90.70;52.77;;;;;;;11.75;75.50;101608.42;5058872;56;1141036;-75
2023/05/17 20:40:08;;;;;;;28.30;12.07;;;;;;;11.62;75.50;101592.44;5012543;57;1143206;-75
2023/05/17 20:45:16;;;;;;;38.90;17.35;;;;;;;11.55;75.98;101598.63;5117717;56;1142857;-75
2023/05/17 20:50:21;;;;;;;31.30;10.45;;;;;;;11.52;76.09;101598.82;5086051;56;1143071;-76
2023/05/17 20:55:27;;;;;;;38.15;11.68;;;;;;;11.49;76.21;101602.13;4929909;58;1142994;-76
2023/05/17 21:00:32;;;;;;;26.07;9.80;;;;;;;11.40;76.43;101602.27;4979346;57;1142905;-76
2023/05/17 21:05:38;;;;;;;68.57;40.17;;;;;;;11.43;76.73;101607.84;5070880;56;1140984;-75
2023/05/17 21:10:45;;;;;;;30.23;10.67;;;;;;;11.40;76.70;101620.80;4986437;57;1142878;-75
2023/05/17 21:15:52;;;;;;;144.70;39.77;;;;;;;11.33;76.83;101631.87;5027160;57;1142861;-77
2023/05/17 21:20:58;;;;;;;302.73;79.00;;;;;;;11.30;77.18;101628.97;4998901;57;1145066;-76
2023/05/17 21:26:06;;;;;;;108.10;42.67;;;;;;;11.18;76.76;101629.70;5039851;57;1145164;-76
2023/05/17 21:31:12;;;;;;;74.45;38.48;;;;;;;11.01;77.12;101633.39;5013091;57;1145180;-75
2023/05/17 21:36:18;;;;;;;54.18;29.40;;;;;;;10.91;77.86;101637.56;5007157;57;1143089;-74
2023/05/17 21:41:23;;;;;;;19.55;7.22;;;;;;;10.91;78.90;101635.77;5095012;56;1143078;-75
2023/05/17 21:46:29;;;;;;;13.73;4.70;;;;;;;10.97;79.58;101639.00;5092468;56;1140909;-76
2023/05/17 21:51:35;;;;;;;15.27;4.00;;;;;;;10.94;79.70;101637.38;4971427;56;1140797;-76
2023/05/17 21:56:40;;;;;;;5.53;2.90;;;;;;;10.86;79.83;101633.86;4930347;58;1140832;-77
2023/05/17 22:01:46;;;;;;;16.67;5.97;;;;;;;10.78;79.97;101624.70;4952446;56;1138771;-75
2023/05/17 22:06:52;;;;;;;24.60;11.40;;;;;;;10.69;79.99;101631.42;4971179;56;1141001;-76
2023/05/17 22:11:57;;;;;;;31.07;11.47;;;;;;;10.66;80.78;101635.56;4995080;57;1143056;-76
2023/05/17 22:17:07;;;;;;;21.20;9.87;;;;;;;10.70;81.26;101643.67;4940248;56;1143029;-76
2023/05/17 22:22:11;;;;;;;19.95;7.80;;;;;;;10.75;81.68;101645.58;4961481;57;1141024;-75
2023/05/17 22:27:16;;;;;;;19.07;6.87;;;;;;;10.77;81.80;101636.23;5062371;56;1141004;-77
2023/05/17 22:32:39;;;;;;;12.78;6.55;;;;;;;10.73;82.08;101631.59;4958852;57;1140973;-76
2023/05/17 22:37:45;;;;;;;16.63;5.20;;;;;;;10.65;82.48;101640.48;4932216;57;1140823;-75
2023/05/17 22:42:50;;;;;;;14.37;7.50;;;;;;;10.58;82.10;101639.12;4951549;58;1140810;-76
2023/05/17 22:47:56;;;;;;;19.07;6.23;;;;;;;10.46;82.00;101634.10;4946638;57;1140944;-76
2023/05/17 22:53:02;;;;;;;21.48;5.55;;;;;;;10.27;82.00;101640.55;5100676;56;1140993;-76
2023/05/17 22:58:07;;;;;;;14.97;4.30;;;;;;;10.06;82.83;101641.31;5191396;55;1140914;-75